Time;durP1;ratioP1;P1;durP2;ratioP2;P2;SDS_P1;SDS_P2;PMS_P1;PMS_P2;Temp;Humidity;BMP_temperature;BMP_pressure;BME280_temperature;BME280_humidity;BME280_pressure;Samples;Min_cycle;Max_cycle;Signal;HPM_P1;HPM_P2
2023/09/15 00:02:05;;;;;;;;;11.00;10.00;;;;;22.56;71.17;100928.72;4808825;29;45467;-83
2023/09/15 00:04:31;;;;;;;;;10.00;10.00;;;;;22.53;71.04;100932.44;4808810;29;45392;-83
2023/09/15 00:06:56;;;;;;;;;10.25;8.25;;;;;22.53;70.87;100940.56;4808371;29;45427;-83
2023/09/15 00:09:21;;;;;;;;;12.00;10.75;;;;;22.49;70.52;100930.78;4793443;29;45499;-83
2023/09/15 00:11:49;;;;;;;;;13.00;11.75;;;;;22.52;70.90;100933.41;4811051;29;45388;-83
2023/09/15 00:14:17;;;;;;;;;12.00;10.00;;;;;22.59;69.87;100928.66;4794108;29;45468;-83
2023/09/15 00:16:44;;;;;;;;;8.00;8.00;;;;;22.51;69.68;100930.72;4807958;29;45428;-83
2023/09/15 00:19:13;;;;;;;;;8.67;8.00;;;;;22.48;69.61;100934.44;4808608;29;45346;-83
2023/09/15 00:21:42;;;;;;;;;7.33;7.33;;;;;22.46;69.55;100941.72;4792255;29;46461;-83
2023/09/15 00:24:08;;;;;;;;;10.00;10.00;;;;;22.44;70.28;100942.69;4809057;29;45412;-83
2023/09/15 00:26:34;;;;;;;;;9.50;9.50;;;;;22.44;69.72;100937.25;4808054;29;45424;-83
2023/09/15 00:29:01;;;;;;;;;9.00;7.75;;;;;22.42;68.89;100929.22;4793120;29;45619;-83
2023/09/15 00:31:27;;;;;;;;;9.00;9.00;;;;;22.36;69.64;100932.13;4808209;29;45522;-83
2023/09/15 00:33:53;;;;;;;;;10.67;9.33;;;;;22.39;69.34;100926.59;4791159;29;45786;-83
2023/09/15 00:36:19;;;;;;;;;9.50;9.50;;;;;22.34;68.87;100928.56;4791923;29;45492;-83
2023/09/15 00:38:44;;;;;;;;;8.25;8.25;;;;;22.31;69.04;100923.22;4792501;29;45369;-83
2023/09/15 00:41:10;;;;;;;;;7.75;6.50;;;;;22.29;69.25;100923.28;4809365;29;45668;-83
2023/09/15 00:43:35;;;;;;;;;9.00;9.00;;;;;22.34;69.03;100921.31;4809299;29;45381;-83
2023/09/15 00:46:02;;;;;;;;;8.50;7.50;;;;;22.34;68.89;100920.44;4808582;29;45408;-82
2023/09/15 00:48:28;;;;;;;;;9.00;9.00;;;;;22.33;68.81;100918.66;4792308;29;45315;-82
2023/09/15 00:50:57;;;;;;;;;8.75;8.75;;;;;22.37;69.32;100914.91;4792902;29;47036;-82
2023/09/15 00:53:23;;;;;;;;;9.00;9.00;;;;;22.25;68.76;100910.75;4808617;29;45499;-82
2023/09/15 00:55:51;;;;;;;;;9.00;9.00;;;;;22.32;68.89;100916.91;4807978;29;45403;-82
2023/09/15 00:58:19;;;;;;;;;8.67;7.33;;;;;22.39;69.23;100907.63;4792407;29;45380;-83
2023/09/15 01:00:45;;;;;;;;;8.00;8.00;;;;;22.30;68.39;100921.44;4809321;29;45338;-81
2023/09/15 01:03:18;;;;;;;;;8.00;8.00;;;;;22.32;68.99;100915.06;4790364;29;45393;-82
2023/09/15 01:05:48;;;;;;;;;8.00;8.00;;;;;22.21;69.05;100913.59;4801598;29;45489;-81
2023/09/15 01:08:13;;;;;;;;;8.50;8.50;;;;;22.14;69.19;100913.78;4808387;29;45413;-82
2023/09/15 01:10:38;;;;;;;;;10.50;8.25;;;;;22.13;69.29;100916.53;4806778;29;47212;-81
2023/09/15 01:13:05;;;;;;;;;9.33;9.00;;;;;22.12;69.97;100910.22;4803644;29;45515;-81
2023/09/15 01:15:51;;;;;;;;;7.00;7.00;;;;;22.24;69.39;100908.09;4790888;29;45390;-81
2023/09/15 01:18:30;;;;;;;;;6.33;6.33;;;;;22.23;69.56;100903.59;4774082;29;44859;-81
2023/09/15 01:21:33;;;;;;;;;9.33;9.00;;;;;22.27;69.15;100908.88;4790038;29;46809;-81
2023/09/15 01:24:08;;;;;;;;;8.67;6.67;;;;;22.26;69.44;100908.94;4799359;29;45617;-82
2023/09/15 01:26:55;;;;;;;;;8.00;7.33;;;;;22.17;69.70;100905.53;4808158;29;45359;-82
2023/09/15 01:29:39;;;;;;;;;9.00;8.00;;;;;22.20;69.71;100911.81;4791841;29;45328;-82
2023/09/15 01:32:12;;;;;;;;;7.33;7.33;;;;;22.15;70.06;100909.25;4807450;29;47429;-82
2023/09/15 01:34:39;;;;;;;;;6.00;6.00;;;;;22.05;69.96;100907.75;4808832;29;44880;-81
2023/09/15 01:37:06;;;;;;;;;9.00;9.00;;;;;22.03;69.84;100905.09;4807187;29;45396;-81
2023/09/15 01:39:31;;;;;;;;;7.33;6.67;;;;;21.97;70.21;100905.28;4808702;29;45760;-82
2023/09/15 01:41:58;;;;;;;;;8.00;8.00;;;;;22.01;70.54;100898.84;4808961;29;45178;-81
2023/09/15 01:44:24;;;;;;;;;8.33;8.33;;;;;21.98;70.70;100904.38;4809407;29;44814;-81
2023/09/15 01:46:49;;;;;;;;;6.00;6.00;;;;;22.01;70.60;100901.53;4810523;29;45371;-81
2023/09/15 01:49:18;;;;;;;;;9.00;9.00;;;;;22.05;70.77;100896.94;4809959;29;45402;-82
2023/09/15 01:51:45;;;;;;;;;10.00;10.00;;;;;21.92;71.06;100897.31;4793431;29;47204;-81
2023/09/15 01:54:10;;;;;;;;;9.33;9.00;;;;;21.92;71.00;100896.44;4809929;29;45433;-81
2023/09/15 01:56:36;;;;;;;;;8.33;8.33;;;;;21.89;71.18;100893.81;4811863;29;44763;-82
2023/09/15 01:59:01;;;;;;;;;8.67;7.33;;;;;21.90;71.40;100898.28;4809385;29;45565;-81
2023/09/15 02:01:31;;;;;;;;;10.67;9.33;;;;;22.03;71.51;100899.66;4810640;29;45497;-81
2023/09/15 02:03:57;;;;;;;;;11.33;10.00;;;;;21.91;72.81;100894.63;4809827;29;45419;-81
2023/09/15 02:06:22;;;;;;;;;9.00;8.25;;;;;21.86;72.99;100886.66;4808463;29;45379;-81
2023/09/15 02:08:49;;;;;;;;;9.00;9.00;;;;;22.00;74.26;100893.50;4809457;29;45513;-81
2023/09/15 02:11:15;;;;;;;;;14.00;13.00;;;;;21.86;75.35;100892.06;4810000;29;45407;-82
2023/09/15 02:13:42;;;;;;;;;11.00;11.00;;;;;21.93;75.73;100906.31;4808577;29;45347;-82
2023/09/15 02:16:07;;;;;;;;;11.00;11.00;;;;;21.83;75.94;100892.16;4805403;29;45375;-81
2023/09/15 02:18:32;;;;;;;;;12.00;10.67;;;;;21.80;76.50;100894.09;4795235;29;45028;-81
2023/09/15 02:21:01;;;;;;;;;13.33;11.67;;;;;21.90;76.92;100892.88;4809778;29;45802;-81
2023/09/15 02:23:26;;;;;;;;;12.00;10.67;;;;;21.69;77.39;100892.59;4807981;29;45483;-81
2023/09/15 02:25:52;;;;;;;;;11.67;10.00;;;;;21.63;78.15;100890.03;4806748;29;44865;-80
2023/09/15 02:28:21;;;;;;;;;11.00;11.00;;;;;21.57;77.93;100890.22;4809647;29;45385;-81
2023/09/15 02:30:47;;;;;;;;;13.00;13.00;;;;;21.50;78.44;100883.22;4810027;29;45429;-81
2023/09/15 02:33:19;;;;;;;;;10.33;9.33;;;;;21.65;78.91;100888.19;4799151;29;45370;-81
2023/09/15 02:35:46;;;;;;;;;11.00;11.00;;;;;21.60;79.15;100891.97;4793273;29;44848;-81
2023/09/15 02:38:11;;;;;;;;;12.00;11.67;;;;;21.45;79.25;100896.00;4791806;29;45386;-80
2023/09/15 02:40:36;;;;;;;;;11.67;11.00;;;;;21.44;79.33;100889.69;4797741;29;45318;-81
2023/09/15 02:43:02;;;;;;;;;12.67;12.00;;;;;21.37;79.72;100878.13;4808874;29;44872;-81
2023/09/15 02:45:27;;;;;;;;;12.00;12.00;;;;;21.38;80.20;100890.72;4808285;29;45529;-80
2023/09/15 02:47:53;;;;;;;;;12.00;10.67;;;;;21.38;80.20;100879.91;4810121;29;45463;-81
2023/09/15 02:50:18;;;;;;;;;11.33;11.33;;;;;21.36;80.60;100881.75;4809365;29;45486;-81
2023/09/15 02:52:43;;;;;;;;;10.67;10.00;;;;;21.40;80.75;100887.09;4809480;29;45467;-81
2023/09/15 02:55:09;;;;;;;;;14.67;13.00;;;;;21.40;80.87;100890.69;4810014;29;45384;-81
2023/09/15 02:57:35;;;;;;;;;11.33;11.00;;;;;21.36;80.79;100880.88;4810380;29;45412;-82
2023/09/15 03:00:00;;;;;;;;;15.00;10.00;;;;;21.31;81.12;100878.31;4810066;29;47494;-82
2023/09/15 03:02:25;;;;;;;;;13.67;13.67;;;;;21.30;81.84;100871.13;4809499;29;45584;-81
2023/09/15 03:04:51;;;;;;;;;14.00;12.67;;;;;21.25;82.17;100873.09;4809510;29;45458;-81
2023/09/15 03:07:16;;;;;;;;;10.33;10.33;;;;;21.27;82.32;100883.84;4793578;29;45456;-82
2023/09/15 03:09:43;;;;;;;;;12.67;10.67;;;;;21.25;81.88;100878.50;4810466;29;45368;-82
2023/09/15 03:12:08;;;;;;;;;14.00;12.00;;;;;21.25;82.68;100873.09;4809019;29;45507;-82
2023/09/15 03:14:34;;;;;;;;;12.00;12.00;;;;;21.23;82.56;100879.44;4804743;29;45345;-82
2023/09/15 03:16:59;;;;;;;;;14.00;13.33;;;;;21.16;82.63;100870.63;4796940;29;45319;-81
2023/09/15 03:19:25;;;;;;;;;12.33;12.00;;;;;21.13;83.15;100866.19;4808389;29;47105;-81
2023/09/15 03:21:51;;;;;;;;;12.00;12.00;;;;;21.09;83.35;100867.22;4794907;29;45223;-81
2023/09/15 03:24:17;;;;;;;;;13.33;13.33;;;;;21.03;83.44;100866.50;4809658;29;44833;-81
2023/09/15 03:26:43;;;;;;;;;13.00;11.00;;;;;21.03;84.00;100866.50;4809193;29;44844;-81
2023/09/15 03:29:08;;;;;;;;;11.33;11.33;;;;;21.01;84.16;100868.34;4809344;29;47092;-80
2023/09/15 03:31:34;;;;;;;;;13.67;13.33;;;;;20.95;84.13;100861.28;4811077;29;45194;-80
2023/09/15 03:33:59;;;;;;;;;12.00;12.00;;;;;20.97;84.44;100865.72;4808698;29;45370;-81
2023/09/15 03:36:29;;;;;;;;;12.00;12.00;;;;;20.97;84.83;100865.72;4809457;29;44913;-81
2023/09/15 03:38:59;;;;;;;;;13.67;12.00;;;;;20.97;84.82;100854.91;4811003;29;46155;-81
2023/09/15 03:41:27;;;;;;;;;14.00;13.00;;;;;20.95;84.70;100850.47;4794523;29;45522;-80
2023/09/15 03:43:52;;;;;;;;;14.33;12.67;;;;;20.93;85.21;100847.81;4811255;29;45302;-81
2023/09/15 03:46:18;;;;;;;;;12.00;12.00;;;;;20.98;84.88;100855.78;4810425;29;45412;-81
2023/09/15 03:48:43;;;;;;;;;9.67;9.00;;;;;21.00;85.04;100855.75;4808922;29;45182;-80
2023/09/15 03:51:09;;;;;;;;;15.67;15.33;;;;;20.97;85.03;100848.63;4808449;29;45406;-81
2023/09/15 03:53:34;;;;;;;;;15.00;13.33;;;;;21.00;84.80;100850.34;4804398;29;45350;-80
2023/09/15 03:56:00;;;;;;;;;14.00;11.00;;;;;21.01;85.00;100846.72;4788583;29;44854;-81
2023/09/15 03:58:25;;;;;;;;;16.00;14.00;;;;;20.99;84.94;100846.75;4809015;29;45413;-80
2023/09/15 04:00:51;;;;;;;;;11.00;11.00;;;;;20.90;85.31;100834.34;4809541;29;45489;-81
2023/09/15 04:03:16;;;;;;;;;11.67;11.67;;;;;20.90;85.39;100836.19;4809613;29;44944;-80
2023/09/15 04:05:49;;;;;;;;;12.67;11.67;;;;;21.04;85.44;100836.69;4791327;29;45389;-81
2023/09/15 04:08:14;;;;;;;;;13.33;13.00;;;;;20.85;85.57;100844.44;4806208;29;48047;-81
2023/09/15 04:10:40;;;;;;;;;13.00;13.00;;;;;20.84;85.73;100837.22;4805602;29;45448;-81
2023/09/15 04:13:05;;;;;;;;;11.33;10.33;;;;;20.90;86.26;100841.59;4804916;29;45436;-81
2023/09/15 04:15:30;;;;;;;;;11.33;11.33;;;;;20.87;86.41;100837.16;4796404;29;44828;-82
2023/09/15 04:17:56;;;;;;;;;13.67;11.00;;;;;20.83;85.94;100832.75;4808213;29;47230;-82
2023/09/15 04:20:22;;;;;;;;;13.67;13.00;;;;;20.77;85.97;100832.94;4807751;29;45450;-82
2023/09/15 04:22:47;;;;;;;;;12.33;12.00;;;;;20.77;85.91;100832.94;4809343;29;45463;-81
2023/09/15 04:25:20;;;;;;;;;16.33;13.67;;;;;20.78;85.98;100834.69;4805014;29;45464;-81
2023/09/15 04:27:50;;;;;;;;;13.67;13.67;;;;;20.77;86.24;100822.13;4808242;29;45547;-81
2023/09/15 04:30:15;;;;;;;;;12.67;12.00;;;;;20.75;86.18;100821.28;4805600;29;44915;-81
2023/09/15 04:32:41;;;;;;;;;18.00;14.67;;;;;20.74;86.67;100811.38;4792565;29;45393;-81
2023/09/15 04:35:08;;;;;;;;;17.00;14.67;;;;;20.72;86.66;100807.81;4791429;29;44905;-81
2023/09/15 04:37:36;;;;;;;;;10.33;10.33;;;;;20.74;86.63;100812.28;4791089;29;47439;-82
2023/09/15 04:40:05;;;;;;;;;11.00;11.00;;;;;20.69;86.39;100808.81;4803904;29;45714;-82
2023/09/15 04:42:30;;;;;;;;;15.00;12.00;;;;;20.66;86.47;100805.28;4799345;29;45004;-81
2023/09/15 04:44:56;;;;;;;;;11.33;11.33;;;;;20.69;86.84;100805.22;4792178;29;45377;-81
2023/09/15 04:47:35;;;;;;;;;13.00;12.00;;;;;20.83;86.72;100794.03;4804941;29;45491;-80
2023/09/15 04:50:01;;;;;;;;;12.33;12.33;;;;;20.75;86.96;100796.94;4806996;29;45285;-81
2023/09/15 04:52:27;;;;;;;;;14.00;14.00;;;;;20.75;86.98;100799.66;4808757;29;45450;-81
2023/09/15 04:54:54;;;;;;;;;13.33;13.33;;;;;20.74;87.15;100801.47;4809057;29;45047;-80
2023/09/15 04:57:23;;;;;;;;;12.00;12.00;;;;;20.82;87.26;100798.53;4808917;29;45326;-79
2023/09/15 04:59:48;;;;;;;;;13.33;13.33;;;;;20.68;87.05;100789.91;4807437;29;45044;-81
2023/09/15 05:02:15;;;;;;;;;14.00;13.00;;;;;20.70;87.15;100794.38;4808625;29;44878;-82
2023/09/15 05:04:40;;;;;;;;;13.00;12.33;;;;;20.68;87.15;100793.53;4803718;29;45470;-82
2023/09/15 05:07:12;;;;;;;;;13.00;13.00;;;;;20.79;87.47;100798.63;4808436;29;46877;-81
2023/09/15 05:09:38;;;;;;;;;9.33;7.67;;;;;20.64;87.42;100801.75;4809460;29;45011;-81
2023/09/15 05:12:04;;;;;;;;;12.67;12.67;;;;;20.58;87.10;100792.88;4809216;29;45356;-81
2023/09/15 05:14:30;;;;;;;;;16.00;14.00;;;;;20.61;87.20;100805.41;4807111;29;45114;-82
2023/09/15 05:16:56;;;;;;;;;15.33;13.00;;;;;20.58;87.21;100806.41;4810139;29;45145;-80
2023/09/15 05:19:22;;;;;;;;;13.33;13.33;;;;;20.61;87.67;100809.94;4810095;29;45346;-81
2023/09/15 05:21:47;;;;;;;;;14.67;14.00;;;;;20.57;87.50;100818.09;4810747;29;45409;-81
2023/09/15 05:24:13;;;;;;;;;14.00;14.00;;;;;20.58;88.16;100814.50;4809623;29;45315;-80
2023/09/15 05:26:38;;;;;;;;;14.33;14.33;;;;;20.59;87.63;100815.38;4796118;29;47289;-78
2023/09/15 05:29:04;;;;;;;;;10.67;10.67;;;;;20.63;87.69;100805.38;4814550;29;44795;-81
2023/09/15 05:31:30;;;;;;;;;12.67;11.67;;;;;20.66;87.50;100802.59;4798024;29;45486;-81
2023/09/15 05:33:57;;;;;;;;;13.33;13.33;;;;;20.80;87.70;100811.22;4814738;29;45385;-82
2023/09/15 05:36:26;;;;;;;;;12.33;11.00;;;;;20.79;87.71;100812.16;4814679;29;44993;-82
2023/09/15 05:38:52;;;;;;;;;16.67;12.00;;;;;20.73;87.92;100815.91;4814968;29;45785;-82
2023/09/15 05:41:18;;;;;;;;;12.33;11.00;;;;;20.75;87.49;100810.47;4816511;29;45380;-81
2023/09/15 05:43:46;;;;;;;;;16.33;16.33;;;;;20.74;87.39;100806.88;4813491;29;44892;-81
2023/09/15 05:46:12;;;;;;;;;15.33;13.67;;;;;20.84;87.18;100802.09;4811762;29;47535;-81
2023/09/15 05:48:37;;;;;;;;;13.00;13.00;;;;;20.75;86.69;100797.81;4810730;29;44899;-81
2023/09/15 05:51:06;;;;;;;;;10.00;10.00;;;;;20.75;86.51;100800.53;4813502;29;44836;-81
2023/09/15 05:53:36;;;;;;;;;15.00;13.67;;;;;20.80;86.44;100797.69;4814440;29;44807;-82
2023/09/15 05:56:02;;;;;;;;;13.00;12.00;;;;;20.76;86.01;100787.91;4811817;29;47312;-82
2023/09/15 05:58:27;;;;;;;;;12.33;11.33;;;;;20.84;86.04;100803.91;4811031;29;44825;-83
2023/09/15 06:00:57;;;;;;;;;11.33;11.33;;;;;20.96;85.24;100799.03;4827601;29;44751;-85
2023/09/15 06:03:27;;;;;;;;;15.00;11.33;;;;;21.07;85.06;100804.16;4810959;29;44875;-83
2023/09/15 06:05:52;;;;;;;;;11.00;7.67;;;;;20.93;85.07;100796.44;4829279;29;46943;-83
2023/09/15 06:08:20;;;;;;;;;11.67;10.00;;;;;21.05;84.72;100806.03;4830171;29;44808;-82
2023/09/15 06:10:49;;;;;;;;;13.00;13.00;;;;;21.22;84.59;100804.66;4810971;29;44826;-83
2023/09/15 06:18:25;;;;;;;;;13.00;11.67;;;;;21.47;84.13;100812.94;5333316;23;46294;-84
2023/09/15 06:20:51;;;;;;;;;11.00;10.00;;;;;21.51;83.37;100811.94;4875334;29;45143;-84
2023/09/15 06:25:58;;;;;;;;;16.00;14.67;;;;;21.66;83.52;100808.75;5170797;23;46909;-83
2023/09/15 06:28:26;;;;;;;;;11.50;11.50;;;;;21.76;83.04;100803.97;4860681;29;45026;-83
2023/09/15 06:30:52;;;;;;;;;13.33;12.00;;;;;21.84;81.32;100803.72;4880262;29;44823;-83
2023/09/15 06:33:21;;;;;;;;;9.00;9.00;;;;;21.88;80.81;100797.28;4885442;29;44852;-85
2023/09/15 06:35:47;;;;;;;;;12.67;12.00;;;;;21.94;80.29;100794.38;4884654;29;47442;-85
2023/09/15 06:38:13;;;;;;;;;14.67;13.00;;;;;22.02;79.26;100808.53;4866439;29;44864;-84
2023/09/15 06:40:38;;;;;;;;;14.33;12.33;;;;;22.07;79.60;100809.25;4865804;29;44785;-83
2023/09/15 06:43:06;;;;;;;;;15.00;11.33;;;;;22.17;79.17;100809.84;4867944;29;45363;-83
2023/09/15 06:45:33;;;;;;;;;17.00;13.33;;;;;22.12;78.63;100798.31;4867229;29;46890;-82
2023/09/15 06:48:02;;;;;;;;;13.33;12.33;;;;;22.27;79.34;100810.47;4878616;29;44941;-83
2023/09/15 06:50:27;;;;;;;;;11.33;10.33;;;;;22.33;78.38;100805.72;4867647;29;44789;-83
2023/09/15 06:52:53;;;;;;;;;14.00;13.67;;;;;22.37;76.97;100811.94;4869556;29;45022;-81
2023/09/15 06:55:18;;;;;;;;;16.00;14.00;;;;;22.37;77.73;100810.09;4881429;29;47282;-82
2023/09/15 06:57:44;;;;;;;;;13.50;13.00;;;;;22.36;76.37;100802.94;4881288;29;45221;-82
2023/09/15 07:00:09;;;;;;;;;13.33;13.33;;;;;22.40;77.00;100811.84;4866198;29;44785;-82
2023/09/15 07:02:35;;;;;;;;;10.00;10.00;;;;;22.37;76.67;100803.81;4882048;29;45273;-83
2023/09/15 07:05:00;;;;;;;;;10.67;10.67;;;;;22.51;77.22;100809.63;4880899;29;45331;-82
2023/09/15 07:07:26;;;;;;;;;10.67;10.00;;;;;22.52;76.43;100789.75;4868099;29;44871;-82
2023/09/15 07:09:51;;;;;;;;;12.00;12.00;;;;;22.70;75.19;100811.69;4884079;29;44733;-84
2023/09/15 07:15:38;;;;;;;;;12.33;11.67;;;;;22.69;74.56;100802.69;4870607;29;44895;-84
2023/09/15 07:18:04;;;;;;;;;10.00;10.00;;;;;22.76;74.84;100806.97;4861696;29;44922;-83
2023/09/15 07:20:32;;;;;;;;;12.00;12.00;;;;;22.83;74.69;100777.81;4882306;29;45175;-81
2023/09/15 07:23:03;;;;;;;;;13.33;12.00;;;;;22.94;73.95;100797.25;4852907;29;44963;-81
2023/09/15 07:25:28;;;;;;;;;9.67;9.67;;;;;22.84;74.17;100794.94;4860177;29;46146;-84
2023/09/15 07:27:56;;;;;;;;;13.00;13.00;;;;;23.14;73.26;100798.41;4873192;29;44817;-84
2023/09/15 07:30:22;;;;;;;;;8.33;8.00;;;;;22.99;72.73;100788.09;4869150;29;45084;-81
2023/09/15 07:32:47;;;;;;;;;11.67;11.67;;;;;22.96;73.03;100798.09;4863600;29;44885;-82
2023/09/15 07:35:14;;;;;;;;;13.33;12.33;;;;;22.96;73.40;100787.25;4883893;29;45458;-82
2023/09/15 07:37:43;;;;;;;;;14.67;11.67;;;;;22.92;72.94;100784.72;4877367;29;44913;-82
2023/09/15 07:40:09;;;;;;;;;10.33;10.33;;;;;22.80;73.35;100758.91;4881432;29;44903;-83
2023/09/15 07:42:40;;;;;;;;;10.67;9.67;;;;;23.09;72.86;100787.72;4871481;29;44868;-81
2023/09/15 07:45:12;;;;;;;;;13.00;12.33;;;;;23.07;72.01;100756.19;4876314;29;45258;-81
2023/09/15 07:47:38;;;;;;;;;13.67;11.67;;;;;23.00;71.69;100768.16;4877069;29;44947;-84
2023/09/15 07:50:04;;;;;;;;;12.67;10.67;;;;;23.20;72.40;100770.16;4871361;29;44846;-83
2023/09/15 07:52:30;;;;;;;;;12.67;12.00;;;;;23.20;71.81;100762.91;4858804;29;45441;-86
2023/09/15 07:55:04;;;;;;;;;9.33;7.00;;;;;23.39;71.47;100779.38;4874197;29;46894;-82
2023/09/15 07:57:35;;;;;;;;;10.33;10.33;;;;;23.25;71.45;100720.22;4861102;29;44718;-83
2023/09/15 08:00:00;;;;;;;;;11.33;10.67;;;;;23.44;71.17;100757.47;4868054;29;44928;-87
2023/09/15 08:57:04;;;;;;;;;8.00;8.00;;;;;24.80;66.27;100769.94;4949473;22;31077877;-85
2023/09/15 09:22:47;;;;;;;;;11.00;11.00;;;;;24.96;63.30;100751.09;6351534;22;45035;-82
2023/09/15 09:25:13;;;;;;;;;12.67;9.67;;;;;24.83;63.70;100726.28;6326800;22;45700;-82
2023/09/15 09:27:38;;;;;;;;;9.67;8.67;;;;;24.84;62.74;100724.44;6332818;22;44845;-81
2023/09/15 09:30:11;;;;;;;;;10.67;10.67;;;;;24.83;63.72;100728.13;6357506;22;44750;-81
2023/09/15 09:32:39;;;;;;;;;10.67;10.00;;;;;24.74;64.24;100702.22;6330236;22;44860;-82
2023/09/15 09:35:06;;;;;;;;;11.33;9.33;;;;;24.91;63.93;100736.84;6308286;22;45674;-81
2023/09/15 09:37:40;;;;;;;;;11.00;11.00;;;;;25.15;62.82;100748.44;6326445;22;44728;-82
2023/09/15 09:40:06;;;;;;;;;11.00;10.00;;;;;25.06;62.35;100743.41;6350587;22;45373;-81
2023/09/15 09:42:34;;;;;;;;;8.00;8.00;;;;;25.24;62.73;100747.13;6263112;22;46431;-80
2023/09/15 09:45:00;;;;;;;;;10.67;9.67;;;;;25.19;62.04;100744.59;6244133;22;46966;-81
2023/09/15 09:47:34;;;;;;;;;9.67;9.67;;;;;25.35;63.05;100744.81;6221050;22;44771;-84
2023/09/15 09:50:12;;;;;;;;;10.33;10.33;;;;;25.35;63.18;100734.78;6219666;22;44744;-85
2023/09/15 09:56:21;;;;;;;;;10.33;10.33;;;;;25.66;61.84;100744.19;6221936;22;44912;-83
2023/09/15 09:58:48;;;;;;;;;5.50;5.50;;;;;25.54;61.61;100739.34;6228496;22;44688;-80
2023/09/15 10:01:14;;;;;;;;;12.67;11.67;;;;;25.57;60.56;100739.19;6232257;22;44717;-81
2023/09/15 10:03:43;;;;;;;;;10.00;10.00;;;;;25.64;60.57;100742.50;6230242;22;44833;-82
2023/09/15 10:06:08;;;;;;;;;8.25;7.00;;;;;25.57;61.86;100739.19;6221830;22;47052;-84
2023/09/15 10:09:33;;;;;;;;;7.50;7.25;;;;;25.80;61.22;100739.94;6204818;22;44746;-82
2023/09/15 10:12:02;;;;;;;;;8.33;8.33;;;;;25.68;61.33;100720.50;6193931;22;44910;-85
2023/09/15 10:20:00;;;;;;;;;10.50;10.50;;;;;26.02;61.57;100735.19;6214589;22;45774;-86
2023/09/15 10:23:19;;;;;;;;;10.25;10.25;;;;;25.97;60.65;100701.81;6267218;22;44934;-82
2023/09/15 10:30:42;;;;;;;;;11.33;11.33;;;;;26.11;61.39;100691.09;6251092;22;44800;-83
2023/09/15 10:33:09;;;;;;;;;14.00;13.00;;;;;26.21;60.14;100677.00;6319238;22;44704;-84
2023/09/15 10:38:11;;;;;;;;;12.00;12.00;;;;;26.36;59.53;100689.84;6262311;22;45162;-83
2023/09/15 10:40:49;;;;;;;;;13.33;12.33;;;;;26.58;59.00;100694.19;6212849;22;44944;-82
2023/09/15 10:43:19;;;;;;;;;15.33;15.33;;;;;26.33;57.83;100669.06;6239268;22;44738;-83
2023/09/15 10:45:58;;;;;;;;;13.00;11.67;;;;;26.32;57.38;100672.75;6264777;22;44857;-81
2023/09/15 10:52:02;;;;;;;;;12.00;12.00;;;;;26.49;58.55;100674.56;6262276;22;44730;-82
2023/09/15 10:55:01;;;;;;;;;12.25;11.50;;;;;26.51;59.48;100666.31;6238959;22;44786;-82
2023/09/15 10:57:31;;;;;;;;;9.25;9.25;;;;;26.38;57.48;100648.84;6264416;22;44827;-80
2023/09/15 11:13:41;;;;;;;;;15.67;12.00;;;;;26.71;55.41;100627.09;6252547;22;45850;-81
2023/09/15 11:16:11;;;;;;;;;11.00;10.00;;;;;26.74;55.20;100636.00;6265156;22;44703;-80
2023/09/15 11:18:38;;;;;;;;;10.33;9.33;;;;;26.78;55.28;100625.75;6238332;22;44840;-79
2023/09/15 11:21:28;;;;;;;;;10.67;9.67;;;;;26.67;56.67;100607.28;6239303;22;45228;-81
2023/09/15 11:29:44;;;;;;;;;10.00;10.00;;;;;26.87;53.74;100602.56;6326149;22;45826;-81
2023/09/15 11:40:36;;;;;;;;;9.33;8.33;;;;;27.06;52.85;100618.75;6250580;22;44835;-83
2023/09/15 11:43:05;;;;;;;;;8.00;8.00;;;;;26.96;56.07;100609.34;6372033;22;46679;-82
2023/09/15 11:45:38;;;;;;;;;4.33;4.00;;;;;27.05;54.88;100584.25;6264579;22;44882;-84
2023/09/15 11:48:08;;;;;;;;;8.00;8.00;;;;;27.21;50.52;100590.59;6263748;22;44723;-82
2023/09/15 11:50:35;;;;;;;;;7.75;7.75;;;;;27.31;49.63;100607.38;6239597;22;44769;-82
2023/09/15 12:01:24;;;;;;;;;9.00;7.00;;;;;27.78;52.68;100608.25;6180809;22;46727;31
2023/09/15 12:07:09;;;;;;;;;7.67;7.00;;;;;27.64;51.35;100584.50;6313585;22;44775;-82
2023/09/15 12:10:06;;;;;;;;;6.25;6.25;;;;;27.80;49.78;100603.59;6323645;22;45142;-82
2023/09/15 12:54:32;;;;;;;;;5.67;5.67;;;;;28.86;46.54;100524.00;6209238;22;45941;-81
2023/09/15 12:56:58;;;;;;;;;5.67;5.67;;;;;28.93;47.14;100546.38;6222665;22;44789;-83
2023/09/15 12:59:28;;;;;;;;;4.33;4.33;;;;;29.04;46.13;100535.59;6247504;22;45164;-84
2023/09/15 13:01:55;;;;;;;;;5.25;5.25;;;;;28.91;44.80;100532.78;6253417;22;44762;-83
2023/09/15 13:04:30;;;;;;;;;5.75;5.50;;;;;28.83;47.12;100520.59;6251201;22;44805;-81
2023/09/15 13:06:59;;;;;;;;;5.25;5.00;;;;;28.99;45.89;100525.94;6223188;22;44866;-84
2023/09/15 13:09:31;;;;;;;;;5.67;4.33;;;;;28.99;46.02;100518.59;6219831;22;47156;-81
2023/09/15 13:11:57;;;;;;;;;6.50;5.00;;;;;28.80;45.24;100510.72;6248395;22;44783;-81
2023/09/15 13:14:34;;;;;;;;;4.00;4.00;;;;;28.87;46.41;100503.88;6246124;22;44765;-83
2023/09/15 13:16:59;;;;;;;;;5.25;5.25;;;;;28.81;44.74;100504.28;6250297;22;45336;-84
2023/09/15 13:19:25;;;;;;;;;5.33;5.33;;;;;28.78;46.60;100496.25;6251294;22;45351;-83
2023/09/15 13:21:50;;;;;;;;;4.25;3.75;;;;;28.88;45.17;100512.94;6224376;22;45218;-83
2023/09/15 13:24:20;;;;;;;;;4.00;4.00;;;;;28.96;45.59;100494.16;6223380;22;44843;-83
2023/09/15 13:26:49;;;;;;;;;6.00;6.00;;;;;28.83;43.92;100501.44;6228453;22;44900;-80
2023/09/15 13:29:15;;;;;;;;;4.25;4.25;;;;;28.75;43.25;100484.66;6261851;22;45209;-79
2023/09/15 13:31:42;;;;;;;;;4.50;4.00;;;;;28.87;45.57;100514.81;6263205;22;44730;-81
2023/09/15 13:34:08;;;;;;;;;5.75;5.25;;;;;28.87;45.57;100490.19;6266459;22;44764;-80
2023/09/15 13:39:27;;;;;;;;;7.00;7.00;;;;;29.00;45.34;100476.53;6242380;22;47433;-81
2023/09/15 13:47:04;;;;;;;;;4.00;4.00;;;;;29.24;45.52;100489.59;6184844;22;44933;-79
2023/09/15 13:49:35;;;;;;;;;5.00;5.00;;;;;29.14;45.39;100472.91;6324219;22;47559;-83
2023/09/15 13:52:01;;;;;;;;;7.00;5.25;;;;;29.06;46.01;100448.72;6349882;22;44814;-80
2023/09/15 13:54:29;;;;;;;;;3.50;3.50;;;;;29.17;46.08;100450.78;6360549;22;44776;-81
2023/09/15 13:56:57;;;;;;;;;5.75;5.25;;;;;29.42;44.88;100468.28;6328825;22;44783;-83
2023/09/15 13:59:22;;;;;;;;;4.75;4.75;;;;;29.27;45.44;100454.66;6353840;22;45253;-82
2023/09/15 14:01:48;;;;;;;;;4.50;4.50;;;;;29.18;44.89;100430.63;6322520;22;45256;-82
2023/09/15 14:04:19;;;;;;;;;4.50;4.50;;;;;29.25;43.82;100451.16;6303964;22;44720;-83
2023/09/15 14:06:48;;;;;;;;;4.00;4.00;;;;;29.50;44.92;100463.13;6323893;22;44828;-83
2023/09/15 14:15:10;;;;;;;;;5.00;5.00;;;;;29.15;44.47;100440.91;6213396;22;47025;-80
2023/09/15 14:48:15;;;;;;;;;4.25;4.25;;;;;29.04;41.88;100384.13;6206582;22;46773;-82
2023/09/15 14:55:52;;;;;;;;;4.00;4.00;;;;;29.00;42.42;100419.03;6162617;22;46447;-82
2023/09/15 15:01:02;;;;;;;;;4.00;4.00;;;;;29.03;41.85;100393.34;6249409;22;46807;-83
2023/09/15 15:03:33;;;;;;;;;0.50;0.50;;;;;29.12;42.95;100406.41;6209693;22;46473;-82
2023/09/15 15:19:53;;;;;;;;;3.00;3.00;;;;;29.07;40.92;100394.88;6231379;22;44639;-79
2023/09/15 15:22:19;;;;;;;;;4.75;4.75;;;;;28.97;41.83;100399.22;6219612;22;44810;-81
2023/09/15 15:24:45;;;;;;;;;4.50;4.25;;;;;28.84;42.02;100361.72;6236805;22;45796;-83
2023/09/15 15:37:25;;;;;;;;;3.67;3.67;;;;;28.78;42.49;100345.72;6202576;22;46620;-82
2023/09/15 15:39:50;;;;;;;;;4.00;4.00;;;;;28.91;42.92;100357.59;6223902;22;45184;-83
2023/09/15 15:42:24;;;;;;;;;3.00;3.00;;;;;28.88;42.67;100349.59;6202587;22;44778;-83
2023/09/15 15:44:56;;;;;;;;;4.00;4.00;;;;;28.97;41.41;100347.22;6205892;22;44840;-83
2023/09/15 15:47:23;;;;;;;;;6.33;6.33;;;;;28.95;42.95;100362.88;6227029;22;46975;-84